Time;durP1;ratioP1;P1;durP2;ratioP2;P2;SDS_P1;SDS_P2;PMS_P1;PMS_P2;Temp;Humidity;BMP_temperature;BMP_pressure;BME280_temperature;BME280_humidity;BME280_pressure;Samples;Min_cycle;Max_cycle;Signal;HPM_P1;HPM_P2
2022/07/19 00:02:01;;;;;;;12.85;7.20;;;17.60;99.90;;;;;;4997379;28;20077;-69
2022/07/19 00:04:27;;;;;;;15.88;7.85;;;17.60;99.90;;;;;;5013352;28;20049;-66
2022/07/19 00:06:54;;;;;;;12.18;7.22;;;17.60;99.90;;;;;;5013349;28;20045;-67
2022/07/19 00:09:21;;;;;;;10.48;6.85;;;17.60;99.90;;;;;;4997790;28;20053;-67
2022/07/19 00:11:47;;;;;;;14.30;10.23;;;17.70;99.90;;;;;;4997743;28;20072;-66
2022/07/19 00:14:13;;;;;;;14.38;9.88;;;17.70;99.90;;;;;;5013212;28;20514;-66
2022/07/19 00:16:38;;;;;;;11.40;8.00;;;17.70;99.90;;;;;;5029808;28;20041;-67
2022/07/19 00:19:04;;;;;;;15.70;8.00;;;17.60;99.90;;;;;;5000796;28;20057;-67
2022/07/19 00:21:30;;;;;;;8.77;7.32;;;17.50;99.90;;;;;;5000119;28;20104;-69
2022/07/19 00:23:56;;;;;;;10.05;6.65;;;17.40;99.90;;;;;;4984480;28;20045;-67
2022/07/19 00:26:21;;;;;;;18.15;7.90;;;17.40;99.90;;;;;;5013241;28;20056;-71
2022/07/19 00:28:47;;;;;;;11.35;8.23;;;17.40;99.90;;;;;;4981666;28;20050;-67
2022/07/19 00:31:13;;;;;;;13.40;8.88;;;17.40;99.90;;;;;;4992735;28;20449;-67
2022/07/19 00:33:38;;;;;;;10.40;7.90;;;17.30;99.90;;;;;;4997035;28;20053;-67
2022/07/19 00:36:04;;;;;;;14.15;9.00;;;17.30;99.90;;;;;;4981047;28;20444;-67
2022/07/19 00:38:30;;;;;;;10.50;8.32;;;17.30;99.90;;;;;;4997393;28;20050;-65
2022/07/19 00:40:56;;;;;;;12.05;8.63;;;17.20;99.90;;;;;;4995506;28;20084;-66
2022/07/19 00:43:21;;;;;;;11.15;8.73;;;17.20;99.90;;;;;;5016513;28;20157;-67
2022/07/19 00:45:47;;;;;;;10.13;7.55;;;17.20;99.90;;;;;;5000483;28;20513;-66
2022/07/19 00:48:13;;;;;;;12.93;8.80;;;17.20;99.90;;;;;;5000354;28;20041;-67
2022/07/19 00:50:39;;;;;;;10.48;8.27;;;17.20;99.90;;;;;;5016203;28;20136;-67
2022/07/19 00:53:05;;;;;;;9.27;7.40;;;17.10;99.90;;;;;;5016390;28;20175;-66
2022/07/19 00:55:35;;;;;;;13.25;8.20;;;17.10;99.90;;;;;;5016653;28;20128;-67
2022/07/19 00:58:02;;;;;;;9.88;7.07;;;17.10;99.90;;;;;;5016227;28;20096;-69
2022/07/19 01:00:31;;;;;;;11.35;7.65;;;17.20;99.90;;;;;;5000063;28;20126;-66
2022/07/19 01:02:58;;;;;;;11.80;8.43;;;17.20;99.90;;;;;;4999548;28;20056;-66
2022/07/19 01:05:23;;;;;;;11.90;8.30;;;17.10;99.90;;;;;;5016502;28;20131;-67
2022/07/19 01:07:49;;;;;;;12.45;8.05;;;17.00;99.90;;;;;;4984086;28;20081;-66
2022/07/19 01:10:15;;;;;;;13.52;8.25;;;16.90;99.90;;;;;;5016352;28;20099;-69
2022/07/19 01:12:42;;;;;;;14.48;8.57;;;16.80;99.90;;;;;;5015912;28;20057;-67
2022/07/19 01:15:16;;;;;;;14.73;9.35;;;16.80;99.90;;;;;;4983230;28;20490;-67
2022/07/19 01:17:42;;;;;;;13.90;8.48;;;16.90;99.90;;;;;;5015678;28;20537;-67
2022/07/19 01:20:08;;;;;;;11.77;7.63;;;16.80;99.90;;;;;;5015733;28;20053;-67
2022/07/19 01:22:34;;;;;;;12.38;8.15;;;16.90;99.90;;;;;;5016120;28;20049;-67
2022/07/19 01:25:00;;;;;;;13.10;8.32;;;16.90;99.90;;;;;;4995767;28;20407;-66
2022/07/19 01:27:25;;;;;;;10.73;8.13;;;16.90;99.90;;;;;;4980464;28;20399;-66
2022/07/19 01:29:52;;;;;;;13.55;7.88;;;16.80;99.90;;;;;;5010279;28;20119;-69
2022/07/19 01:32:18;;;;;;;11.82;8.05;;;16.80;99.90;;;;;;5016077;28;20434;-67
2022/07/19 01:34:43;;;;;;;11.43;8.05;;;16.80;99.90;;;;;;4999145;28;20100;-66
2022/07/19 01:37:09;;;;;;;11.60;8.00;;;16.70;99.90;;;;;;4999438;28;20049;-67
2022/07/19 01:39:35;;;;;;;11.40;9.02;;;16.70;99.90;;;;;;4999559;28;20045;-66
2022/07/19 01:42:00;;;;;;;14.48;9.10;;;16.60;99.90;;;;;;5015857;28;20394;-66
2022/07/19 01:44:26;;;;;;;15.05;8.48;;;16.60;99.90;;;;;;5015376;28;20050;-66
2022/07/19 01:46:52;;;;;;;11.00;8.02;;;16.60;99.90;;;;;;5015506;28;20107;-69
2022/07/19 01:49:18;;;;;;;13.75;9.27;;;16.60;99.90;;;;;;4999565;28;20049;-66
2022/07/19 01:51:43;;;;;;;16.83;9.75;;;16.70;99.90;;;;;;5015506;28;20132;-66
2022/07/19 01:54:09;;;;;;;12.32;9.15;;;16.60;99.90;;;;;;4998796;28;20049;-66
2022/07/19 01:56:35;;;;;;;12.52;8.45;;;16.60;99.90;;;;;;4998904;28;20056;-68
2022/07/19 01:59:00;;;;;;;13.60;8.43;;;16.60;99.90;;;;;;4999039;28;20486;-68
2022/07/19 02:01:26;;;;;;;11.27;8.10;;;16.60;99.90;;;;;;4998926;28;20049;-66
2022/07/19 02:03:52;;;;;;;13.50;8.32;;;16.60;99.90;;;;;;5015075;28;20099;-70
2022/07/19 02:06:17;;;;;;;13.27;8.98;;;16.50;99.90;;;;;;4999326;28;20056;-67
2022/07/19 02:08:43;;;;;;;11.30;7.80;;;16.50;99.90;;;;;;5015231;28;20047;-66
2022/07/19 02:13:53;;;;;;;9.57;7.88;;;16.50;99.90;;;;;;5014204;28;20493;-67
2022/07/19 02:16:18;;;;;;;14.05;9.60;;;16.50;99.90;;;;;;5015251;28;20124;-66
2022/07/19 02:18:44;;;;;;;14.48;10.45;;;16.40;99.90;;;;;;5015149;28;20049;-67
2022/07/19 02:21:10;;;;;;;14.27;9.75;;;16.40;99.90;;;;;;4998183;28;20060;-66
2022/07/19 02:23:35;;;;;;;17.23;12.55;;;16.30;99.90;;;;;;4998080;28;20049;-66
2022/07/19 02:26:01;;;;;;;13.63;9.35;;;16.30;99.90;;;;;;5012923;28;20041;-67
2022/07/19 02:28:27;;;;;;;12.07;7.90;;;16.20;99.90;;;;;;4976692;28;20484;-66
2022/07/19 02:30:53;;;;;;;11.50;8.18;;;16.20;99.90;;;;;;4977521;28;20379;-66
2022/07/19 02:33:18;;;;;;;13.30;8.85;;;16.30;99.90;;;;;;4978749;28;20079;-67
2022/07/19 02:35:44;;;;;;;13.85;9.75;;;16.30;99.90;;;;;;4979125;28;20111;-66
2022/07/19 02:38:10;;;;;;;13.38;9.70;;;16.30;99.90;;;;;;4978566;28;20303;-66
2022/07/19 02:40:35;;;;;;;13.57;9.48;;;16.20;99.90;;;;;;4978291;28;20042;-66
2022/07/19 02:43:01;;;;;;;13.25;9.95;;;16.20;99.90;;;;;;4962059;28;20136;-66
2022/07/19 02:45:27;;;;;;;16.60;9.80;;;16.20;99.90;;;;;;4995085;28;20053;-66
2022/07/19 02:47:52;;;;;;;13.45;9.60;;;16.20;99.90;;;;;;4978849;28;20046;-67
2022/07/19 02:50:18;;;;;;;17.35;10.52;;;16.20;99.90;;;;;;4979061;28;20050;-67
2022/07/19 02:52:44;;;;;;;8.30;6.63;;;16.10;99.90;;;;;;4994107;28;20376;-66
2022/07/19 02:55:09;;;;;;;8.98;6.78;;;16.10;99.90;;;;;;4978634;28;20048;-67
2022/07/19 02:57:35;;;;;;;12.63;8.68;;;16.00;99.90;;;;;;4978101;28;20392;-68
2022/07/19 03:00:02;;;;;;;14.55;10.80;;;16.00;99.90;;;;;;4962765;28;20049;-67
2022/07/19 03:02:28;;;;;;;13.32;10.75;;;16.00;99.90;;;;;;4978752;28;20132;-66
2022/07/19 03:04:54;;;;;;;15.13;10.07;;;16.10;99.90;;;;;;4994470;28;20447;-67
2022/07/19 03:07:19;;;;;;;13.02;9.68;;;16.10;99.90;;;;;;4978497;28;20053;-65
2022/07/19 03:09:47;;;;;;;12.65;9.20;;;16.20;99.90;;;;;;4994652;28;20537;-66
2022/07/19 03:12:12;;;;;;;18.20;9.82;;;16.20;99.90;;;;;;4978179;28;20491;-67
2022/07/19 03:14:38;;;;;;;13.40;8.70;;;16.30;99.90;;;;;;4994161;28;20048;-66
2022/07/19 03:17:04;;;;;;;14.45;10.90;;;16.40;99.90;;;;;;4977780;28;20054;-66
2022/07/19 03:19:30;;;;;;;14.48;10.32;;;16.40;99.90;;;;;;4977734;28;20085;-67
2022/07/19 03:21:55;;;;;;;16.13;10.40;;;16.30;99.90;;;;;;4993596;28;20050;-66
2022/07/19 03:24:21;;;;;;;16.15;11.93;;;16.30;99.90;;;;;;4977373;28;20042;-67
2022/07/19 03:26:47;;;;;;;18.77;12.70;;;16.20;99.90;;;;;;4983888;28;20046;-68
2022/07/19 03:29:12;;;;;;;15.70;11.50;;;16.10;99.90;;;;;;4977711;28;20046;-67
2022/07/19 03:31:38;;;;;;;14.90;11.45;;;16.10;99.90;;;;;;4994052;28;20052;-67
2022/07/19 03:34:04;;;;;;;15.82;11.48;;;16.10;99.90;;;;;;4977542;28;20500;-67
2022/07/19 03:36:30;;;;;;;14.68;10.52;;;16.20;99.90;;;;;;4994277;28;20084;-67
2022/07/19 03:38:56;;;;;;;14.05;10.18;;;16.20;99.90;;;;;;4994390;28;20551;-67
2022/07/19 03:41:22;;;;;;;16.75;10.60;;;16.30;99.90;;;;;;4994183;28;20104;-69
2022/07/19 03:43:48;;;;;;;15.02;10.82;;;16.30;99.90;;;;;;5005552;28;20041;-67
2022/07/19 03:46:13;;;;;;;16.52;11.93;;;16.30;99.90;;;;;;4997439;28;20045;-70
2022/07/19 03:48:39;;;;;;;15.23;10.93;;;16.30;99.90;;;;;;5013919;28;20437;-67
2022/07/19 03:51:05;;;;;;;15.85;11.52;;;16.20;99.90;;;;;;4981623;28;20472;-67
2022/07/19 03:53:31;;;;;;;15.20;11.68;;;16.20;99.90;;;;;;5017279;28;20045;-67
2022/07/19 03:55:57;;;;;;;15.07;10.85;;;16.20;99.90;;;;;;5017551;28;20099;-66
2022/07/19 03:58:22;;;;;;;17.02;10.10;;;16.30;99.90;;;;;;4985056;28;20500;-68
2022/07/19 04:00:48;;;;;;;14.82;10.32;;;16.30;99.90;;;;;;4985397;28;20132;-67
2022/07/19 04:03:14;;;;;;;13.43;9.88;;;16.30;99.90;;;;;;5017405;28;20049;-67
2022/07/19 04:05:39;;;;;;;14.35;9.77;;;16.30;99.90;;;;;;5001276;28;20506;-68
2022/07/19 04:08:05;;;;;;;14.52;9.05;;;16.30;99.90;;;;;;5001092;28;20076;-69
2022/07/19 04:10:31;;;;;;;14.77;9.65;;;16.40;99.90;;;;;;5001036;28;20084;-67
2022/07/19 04:12:57;;;;;;;12.25;9.13;;;16.40;99.90;;;;;;5016871;28;20050;-69
2022/07/19 04:15:22;;;;;;;16.65;9.50;;;16.40;99.90;;;;;;5018080;28;20098;-69
2022/07/19 04:17:48;;;;;;;14.05;9.70;;;16.40;99.90;;;;;;5017224;28;20552;-67
2022/07/19 04:20:14;;;;;;;13.23;9.68;;;16.30;99.90;;;;;;5000656;28;20057;-67
2022/07/19 04:22:40;;;;;;;15.32;10.18;;;16.30;99.90;;;;;;5000194;28;20050;-67
2022/07/19 04:25:06;;;;;;;14.07;10.23;;;16.30;99.90;;;;;;4995828;28;20049;-67
2022/07/19 04:27:31;;;;;;;15.93;10.95;;;16.40;99.90;;;;;;5001119;28;20108;-67
2022/07/19 04:29:58;;;;;;;17.05;10.77;;;16.40;99.90;;;;;;4981482;28;20050;-69
2022/07/19 04:32:23;;;;;;;15.00;10.43;;;16.50;99.90;;;;;;5017037;28;20081;-68
2022/07/19 04:34:49;;;;;;;14.00;9.90;;;16.50;99.90;;;;;;5000294;28;20076;-67
2022/07/19 04:37:15;;;;;;;18.45;9.63;;;16.50;99.90;;;;;;5000478;28;20281;-67
2022/07/19 04:39:41;;;;;;;16.70;10.20;;;16.60;99.90;;;;;;5016745;28;20132;-67
2022/07/19 04:42:07;;;;;;;19.38;11.02;;;16.60;99.90;;;;;;5016885;28;20059;-67
2022/07/19 04:44:33;;;;;;;16.23;10.68;;;16.70;99.90;;;;;;5016459;28;20050;-67
2022/07/19 04:47:02;;;;;;;14.27;9.90;;;16.70;99.90;;;;;;5000838;28;20128;-65
2022/07/19 04:49:28;;;;;;;14.85;10.52;;;16.80;99.90;;;;;;5016872;28;20088;-66
2022/07/19 04:51:54;;;;;;;14.40;8.80;;;16.80;99.90;;;;;;5016315;28;20085;-65
2022/07/19 04:54:20;;;;;;;12.95;9.10;;;16.90;99.90;;;;;;5016151;28;20590;-66
2022/07/19 04:56:46;;;;;;;12.70;9.00;;;16.90;99.90;;;;;;5000229;28;20038;-66
2022/07/19 04:59:11;;;;;;;11.75;8.98;;;17.00;99.90;;;;;;5000278;28;20827;-66
2022/07/19 05:01:37;;;;;;;14.88;8.60;;;17.10;99.90;;;;;;5016604;28;20041;-66
2022/07/19 05:04:03;;;;;;;15.20;9.77;;;17.10;99.90;;;;;;5015204;28;20437;-67
2022/07/19 05:06:29;;;;;;;14.13;8.98;;;17.20;99.90;;;;;;5016467;28;20053;-66
2022/07/19 05:08:56;;;;;;;12.65;9.15;;;17.30;99.90;;;;;;5000043;28;20045;-66
2022/07/19 05:11:22;;;;;;;13.73;9.05;;;17.50;99.90;;;;;;5016494;28;20056;-69
2022/07/19 05:13:48;;;;;;;13.85;8.65;;;17.70;99.90;;;;;;5015896;28;20049;-68
2022/07/19 05:16:14;;;;;;;15.40;8.93;;;17.80;99.90;;;;;;5016136;28;20091;-66
2022/07/19 05:18:39;;;;;;;13.98;8.82;;;18.00;99.90;;;;;;4999656;28;20494;-66
2022/07/19 05:21:05;;;;;;;13.93;9.23;;;18.10;99.90;;;;;;4999302;28;20061;-66
2022/07/19 05:23:31;;;;;;;15.02;8.90;;;18.30;99.90;;;;;;4999263;28;20041;-66
2022/07/19 05:25:57;;;;;;;13.43;8.60;;;18.50;99.90;;;;;;4971918;28;20046;-66
2022/07/19 05:28:23;;;;;;;14.57;9.23;;;18.60;99.90;;;;;;4980313;28;20192;-67
2022/07/19 05:30:49;;;;;;;14.85;9.23;;;18.80;99.90;;;;;;4980222;28;20180;-66
2022/07/19 05:33:16;;;;;;;14.40;9.55;;;18.90;99.90;;;;;;4963583;28;20148;-66
2022/07/19 05:35:42;;;;;;;16.52;8.90;;;19.00;99.90;;;;;;4996302;28;20061;-66
2022/07/19 05:38:07;;;;;;;13.05;8.60;;;19.10;99.90;;;;;;5012151;28;20049;-66
2022/07/19 05:40:33;;;;;;;13.13;8.63;;;19.30;99.90;;;;;;4976741;28;20093;-66
2022/07/19 05:43:00;;;;;;;14.38;8.88;;;19.50;99.90;;;;;;4995794;28;20119;-67
2022/07/19 05:45:26;;;;;;;14.05;8.40;;;19.70;99.90;;;;;;4980118;28;20056;-66
2022/07/19 05:47:52;;;;;;;15.45;9.05;;;19.80;99.90;;;;;;4996041;28;20129;-68
2022/07/19 05:50:18;;;;;;;12.27;8.45;;;20.00;99.90;;;;;;4996004;28;20126;-66
2022/07/19 05:52:44;;;;;;;12.15;8.10;;;20.10;99.90;;;;;;4962916;28;20049;-67
2022/07/19 05:55:10;;;;;;;13.18;8.80;;;20.30;99.90;;;;;;4996131;28;20052;-68
2022/07/19 05:57:35;;;;;;;13.05;7.95;;;20.40;99.90;;;;;;4979333;28;20487;-67
2022/07/19 06:00:01;;;;;;;13.85;7.97;;;20.60;99.90;;;;;;4995809;28;20042;-67
2022/07/19 06:02:27;;;;;;;10.43;8.23;;;20.70;99.90;;;;;;4997422;28;20056;-67
2022/07/19 06:04:52;;;;;;;14.00;8.07;;;20.80;99.90;;;;;;4999184;28;20045;-67
2022/07/19 06:07:18;;;;;;;12.80;7.88;;;20.90;99.90;;;;;;4999009;28;20132;-67
2022/07/19 06:09:44;;;;;;;10.15;7.63;;;21.00;99.90;;;;;;4983000;28;20049;-67
2022/07/19 06:12:09;;;;;;;11.93;7.85;;;21.20;99.90;;;;;;4998940;28;20145;-66
2022/07/19 06:14:35;;;;;;;11.57;7.75;;;21.40;99.90;;;;;;5014025;28;20045;-67
2022/07/19 06:17:01;;;;;;;11.05;7.22;;;21.50;99.90;;;;;;4998448;28;20493;-68
2022/07/19 06:19:26;;;;;;;12.43;7.78;;;21.70;99.90;;;;;;5015082;28;20135;-67
2022/07/19 06:21:53;;;;;;;12.60;7.13;;;21.90;99.90;;;;;;4997922;28;20058;-69
2022/07/19 06:24:19;;;;;;;10.43;6.72;;;22.00;99.90;;;;;;5014995;28;20049;-67
2022/07/19 06:26:45;;;;;;;10.60;6.22;;;22.20;99.90;;;;;;5013320;28;20056;-67
2022/07/19 06:29:10;;;;;;;9.95;6.55;;;22.40;99.90;;;;;;4998715;28;20049;-67
2022/07/19 06:31:36;;;;;;;9.55;6.10;;;22.60;99.90;;;;;;4998480;28;20045;-67
2022/07/19 06:34:02;;;;;;;11.32;6.30;;;22.70;99.90;;;;;;5014376;28;20470;-65
2022/07/19 06:36:28;;;;;;;10.63;5.68;;;22.90;99.90;;;;;;4998211;28;20045;-67
2022/07/19 06:38:54;;;;;;;7.82;5.85;;;23.10;99.90;;;;;;5014783;28;20045;-67
2022/07/19 06:41:20;;;;;;;10.20;5.78;;;23.30;99.90;;;;;;5014802;28;20049;-66
2022/07/19 06:43:45;;;;;;;9.98;5.82;;;23.50;99.90;;;;;;4997727;28;20453;-68
2022/07/19 06:46:11;;;;;;;10.15;5.70;;;23.60;99.90;;;;;;4982101;28;20100;-66
2022/07/19 06:48:37;;;;;;;8.73;5.43;;;23.80;99.90;;;;;;5014668;28;20042;-66
2022/07/19 06:51:06;;;;;;;8.77;5.45;;;24.00;99.90;;;;;;4997907;28;20045;-66
2022/07/19 06:53:32;;;;;;;8.75;5.45;;;24.10;99.90;;;;;;4997740;28;20056;-67
2022/07/19 06:55:57;;;;;;;10.07;5.75;;;24.30;99.90;;;;;;4998158;28;20049;-67
2022/07/19 06:58:23;;;;;;;10.15;5.20;;;24.40;99.90;;;;;;4997836;28;20073;-68
2022/07/19 07:00:49;;;;;;;8.20;5.25;;;24.60;99.90;;;;;;4998203;28;20045;-66
2022/07/19 07:03:17;;;;;;;7.75;5.18;;;24.70;99.90;;;;;;5014214;28;20050;-68
2022/07/19 07:05:43;;;;;;;8.40;4.70;;;24.90;99.90;;;;;;4994891;28;20049;-67
2022/07/19 07:08:08;;;;;;;8.52;4.75;;;25.10;99.90;;;;;;5014434;28;20068;-67
2022/07/19 07:10:34;;;;;;;9.20;4.93;;;25.20;99.90;;;;;;4997872;28;20045;-68
2022/07/19 07:13:00;;;;;;;9.10;5.03;;;25.30;99.90;;;;;;4981468;28;20084;-67
2022/07/19 07:15:25;;;;;;;7.72;5.15;;;25.40;99.90;;;;;;5014160;28;20042;-67
2022/07/19 07:17:51;;;;;;;9.43;5.40;;;25.60;99.90;;;;;;5014077;28;20050;-67
2022/07/19 07:20:17;;;;;;;9.88;4.90;;;25.70;99.10;;;;;;4997541;28;20417;-66
2022/07/19 07:22:43;;;;;;;8.65;4.75;;;25.80;98.30;;;;;;4997169;28;20486;-67
2022/07/19 07:25:09;;;;;;;6.50;4.63;;;25.90;97.60;;;;;;5012551;28;20053;-67
2022/07/19 07:27:34;;;;;;;7.60;4.78;;;26.00;96.90;;;;;;5018640;28;20046;-70
2022/07/19 07:30:00;;;;;;;7.95;4.30;;;26.20;96.50;;;;;;4994078;28;20053;-68
2022/07/19 07:32:26;;;;;;;7.55;4.53;;;26.30;95.60;;;;;;5005689;28;20128;-68
2022/07/19 07:34:53;;;;;;;8.65;5.00;;;26.40;94.60;;;;;;5013790;28;20045;-70
2022/07/19 07:37:19;;;;;;;8.23;4.80;;;26.60;93.70;;;;;;5014250;28;20056;-68
2022/07/19 07:39:45;;;;;;;12.35;5.20;;;26.70;93.40;;;;;;5014012;28;20045;-69
2022/07/19 07:42:10;;;;;;;8.68;4.65;;;26.80;92.70;;;;;;5013539;28;20513;-70
2022/07/19 07:44:36;;;;;;;7.03;4.22;;;26.90;91.80;;;;;;4997535;28;20064;-67
2022/07/19 07:47:02;;;;;;;8.20;4.63;;;27.10;91.50;;;;;;4997415;28;20130;-68
2022/07/19 07:49:28;;;;;;;9.48;5.10;;;27.20;91.00;;;;;;5013689;28;20548;-67
2022/07/19 07:51:53;;;;;;;7.78;4.80;;;27.30;91.10;;;;;;5013786;28;20049;-67
2022/07/19 07:54:19;;;;;;;5.00;4.00;;;27.40;90.90;;;;;;4997339;28;20048;-67
2022/07/19 07:56:45;;;;;;;10.30;4.32;;;27.60;90.40;;;;;;5013649;28;20049;-67
2022/07/19 07:59:11;;;;;;;6.10;3.83;;;27.60;88.40;;;;;;5013720;28;20049;-67
2022/07/19 08:01:37;;;;;;;8.27;4.20;;;27.80;87.70;;;;;;4997451;28;20060;-67
2022/07/19 08:04:03;;;;;;;6.93;3.75;;;27.80;85.30;;;;;;5013090;28;20049;-68
2022/07/19 08:06:29;;;;;;;6.50;4.00;;;28.00;83.40;;;;;;5014005;28;20037;-67
2022/07/19 08:08:55;;;;;;;9.05;3.80;;;28.00;80.60;;;;;;5013656;28;20124;-67
2022/07/19 08:11:21;;;;;;;6.85;3.67;;;28.10;78.80;;;;;;5013809;28;20056;-67
2022/07/19 08:13:47;;;;;;;6.97;3.90;;;28.20;80.30;;;;;;5013471;28;20057;-68
2022/07/19 08:16:13;;;;;;;4.53;3.88;;;28.30;78.90;;;;;;4997294;28;20041;-67
2022/07/19 08:18:39;;;;;;;4.65;3.65;;;28.40;78.20;;;;;;4980972;28;20069;-68
2022/07/19 08:21:04;;;;;;;6.60;3.60;;;28.50;78.30;;;;;;5013183;28;20301;-67
2022/07/19 08:23:30;;;;;;;7.95;3.65;;;28.70;77.60;;;;;;4996674;28;20057;-70
2022/07/19 08:25:56;;;;;;;7.57;3.72;;;28.80;75.60;;;;;;5011700;28;20046;-67
2022/07/19 08:28:22;;;;;;;9.18;4.40;;;28.90;75.00;;;;;;5011743;28;20052;-70
2022/07/19 08:30:47;;;;;;;8.07;3.58;;;28.90;74.00;;;;;;4994030;28;20046;-68
2022/07/19 08:33:13;;;;;;;8.65;3.80;;;28.90;72.40;;;;;;4993294;28;20448;-67
2022/07/19 08:35:39;;;;;;;5.53;3.58;;;29.00;71.40;;;;;;4993917;28;20104;-69
2022/07/19 08:38:04;;;;;;;12.68;3.90;;;29.10;71.00;;;;;;4994082;28;20096;-68
2022/07/19 08:40:34;;;;;;;6.80;3.70;;;29.10;70.30;;;;;;4997331;28;20050;-68
2022/07/19 08:43:03;;;;;;;7.97;4.00;;;29.30;70.80;;;;;;4996771;28;20510;-67
2022/07/19 08:45:30;;;;;;;7.75;3.80;;;29.40;70.50;;;;;;4981022;28;20073;-67
2022/07/19 08:47:57;;;;;;;10.73;3.88;;;29.50;69.50;;;;;;4997262;28;20129;-68
2022/07/19 08:50:25;;;;;;;8.25;3.67;;;29.70;70.50;;;;;;4994081;28;20049;-67
2022/07/19 08:52:52;;;;;;;4.03;3.50;;;29.80;69.70;;;;;;5016178;28;20042;-67
2022/07/19 08:55:17;;;;;;;4.72;3.60;;;29.90;68.40;;;;;;5000479;28;20129;-68
2022/07/19 08:58:02;;;;;;;5.90;3.80;;;29.90;68.50;;;;;;4999771;28;20129;-68
2022/07/19 09:00:31;;;;;;;8.40;3.78;;;30.10;68.10;;;;;;5016733;28;20056;-68
2022/07/19 09:02:58;;;;;;;6.60;3.72;;;30.20;67.40;;;;;;5016376;28;20120;-68
2022/07/19 09:05:25;;;;;;;4.40;3.35;;;30.40;67.70;;;;;;5016582;28;20088;-68
2022/07/19 09:08:08;;;;;;;8.02;3.78;;;30.60;65.80;;;;;;5000158;28;20053;-68
2022/07/19 09:10:36;;;;;;;7.68;3.92;;;30.70;63.80;;;;;;4999715;28;20132;-67
2022/07/19 09:13:01;;;;;;;4.93;3.35;;;30.80;65.10;;;;;;4999611;28;20077;-68
2022/07/19 09:15:45;;;;;;;14.02;3.67;;;30.70;64.80;;;;;;5016179;28;20091;-68
2022/07/19 09:18:19;;;;;;;99.35;9.40;;;30.80;62.50;;;;;;5016219;28;20176;-68
2022/07/19 09:20:47;;;;;;;5.50;3.63;;;31.00;64.10;;;;;;5010236;28;20054;-68
2022/07/19 09:23:13;;;;;;;5.80;3.33;;;31.20;64.70;;;;;;4996199;28;20058;-68
2022/07/19 09:25:40;;;;;;;10.02;3.83;;;31.40;64.10;;;;;;5003530;28;20070;-68
2022/07/19 09:28:07;;;;;;;6.03;3.53;;;31.50;63.50;;;;;;5028346;28;20525;-67
2022/07/19 09:30:36;;;;;;;13.10;3.67;;;31.60;62.90;;;;;;5016216;28;20041;-69
2022/07/19 09:33:11;;;;;;;9.88;3.55;;;31.70;62.30;;;;;;4999558;28;20091;-68
2022/07/19 09:35:46;;;;;;;8.18;3.50;;;31.80;60.10;;;;;;4999901;28;20056;-67
2022/07/19 09:38:16;;;;;;;5.38;3.08;;;31.90;59.00;;;;;;5032102;28;20104;-67
2022/07/19 09:40:42;;;;;;;3.50;3.00;;;32.00;59.90;;;;;;4983362;28;20056;-69
2022/07/19 09:43:07;;;;;;;5.85;3.33;;;32.00;59.50;;;;;;5015188;28;20053;-69
2022/07/19 09:45:33;;;;;;;7.78;3.30;;;32.10;58.50;;;;;;4999458;28;20088;-68
2022/07/19 09:48:00;;;;;;;4.85;3.60;;;32.20;58.60;;;;;;5015647;28;20137;-67
2022/07/19 09:50:26;;;;;;;7.00;3.50;;;32.20;58.30;;;;;;5015593;28;20049;-68
2022/07/19 09:52:52;;;;;;;8.57;3.08;;;32.30;57.90;;;;;;4998690;28;20045;-71
2022/07/19 09:55:19;;;;;;;6.32;3.28;;;32.50;57.00;;;;;;5015694;28;20129;-68
2022/07/19 09:57:50;;;;;;;5.35;3.00;;;32.50;56.50;;;;;;5015083;28;20053;-68
2022/07/19 10:00:19;;;;;;;4.47;2.70;;;32.60;55.80;;;;;;5015349;28;20084;-68
2022/07/19 10:02:49;;;;;;;5.35;3.10;;;32.80;55.80;;;;;;5014988;28;20398;-68
2022/07/19 10:05:15;;;;;;;;;;;32.90;55.30;;;;;;5032388;28;20486;-67
2022/07/19 10:07:41;;;;;;;9.25;3.40;;;33.10;55.30;;;;;;5015497;28;20025;-68
2022/07/19 10:10:10;;;;;;;4.65;3.00;;;33.10;54.70;;;;;;4998943;28;20124;-65
2022/07/19 10:12:41;;;;;;;3.55;2.80;;;33.20;54.40;;;;;;5014902;28;20053;-65
2022/07/19 10:15:09;;;;;;;5.28;3.10;;;33.20;54.10;;;;;;5015163;28;20069;-68
2022/07/19 10:18:02;;;;;;;5.50;3.00;;;33.30;53.40;;;;;;5015091;28;20493;-66
2022/07/19 10:20:29;;;;;;;3.92;2.85;;;33.30;52.10;;;;;;4998554;28;20060;-66
2022/07/19 10:22:59;;;;;;;3.13;2.75;;;33.50;53.00;;;;;;5014628;28;20045;-71
2022/07/19 10:25:37;;;;;;;5.38;2.70;;;33.60;51.60;;;;;;5007645;28;20046;-67
2022/07/19 10:28:03;;;;;;;5.10;3.17;;;33.50;51.20;;;;;;5010186;28;20115;-67
2022/07/19 10:30:39;;;;;;;3.45;2.55;;;33.50;50.70;;;;;;5031487;28;20057;-67
2022/07/19 10:33:32;;;;;;;5.75;2.88;;;33.50;48.90;;;;;;5014134;28;20041;-67
2022/07/19 10:36:19;;;;;;;6.18;2.97;;;33.60;50.00;;;;;;5014610;28;20041;-67
2022/07/19 10:39:19;;;;;;;4.32;2.83;;;33.80;50.50;;;;;;5014674;28;20128;-67
2022/07/19 10:42:13;;;;;;;5.88;3.00;;;33.90;48.50;;;;;;5014597;28;20053;-67
2022/07/19 10:44:55;;;;;;;3.25;2.90;;;34.10;47.80;;;;;;5014904;28;20452;-67
2022/07/19 10:47:41;;;;;;;5.25;2.58;;;34.30;48.20;;;;;;5014772;28;20083;-67
2022/07/19 10:50:14;;;;;;;4.68;2.58;;;34.30;45.30;;;;;;4974563;28;20065;-66
2022/07/19 10:52:44;;;;;;;3.10;2.63;;;34.20;46.10;;;;;;5013580;28;20063;-68
2022/07/19 10:55:25;;;;;;;3.33;2.42;;;34.20;47.10;;;;;;5014533;28;20045;-66
2022/07/19 10:58:05;;;;;;;4.13;2.92;;;34.40;45.60;;;;;;5014209;28;20115;-67
2022/07/19 11:00:40;;;;;;;6.72;2.72;;;34.50;46.70;;;;;;4997716;28;20390;-67
2022/07/19 11:03:25;;;;;;;6.18;2.80;;;34.40;46.30;;;;;;4998465;28;20057;-66
2022/07/19 11:05:54;;;;;;;5.65;2.53;;;34.60;45.10;;;;;;5014511;28;20123;-66
2022/07/19 11:08:41;;;;;;;4.47;2.67;;;34.80;45.60;;;;;;5014564;28;20073;-67
2022/07/19 11:11:12;;;;;;;5.00;2.40;;;35.00;44.10;;;;;;5014257;28;20506;-66
2022/07/19 11:13:42;;;;;;;2.58;2.28;;;35.10;45.10;;;;;;5013742;28;20180;-67
2022/07/19 11:16:08;;;;;;;4.97;2.90;;;35.20;45.60;;;;;;4998092;28;20056;-67
2022/07/19 11:18:33;;;;;;;4.22;2.63;;;35.40;45.20;;;;;;4997616;28;20045;-67
2022/07/19 11:21:01;;;;;;;4.60;2.38;;;35.50;44.60;;;;;;5013761;28;20553;-66
2022/07/19 11:23:36;;;;;;;5.72;2.42;;;35.60;44.60;;;;;;4997316;28;20049;-67
2022/07/19 11:26:20;;;;;;;3.00;2.30;;;35.70;43.90;;;;;;4993729;28;20076;-68
2022/07/19 11:28:47;;;;;;;5.55;2.30;;;36.00;42.20;;;;;;5002641;28;20052;-66
2022/07/19 11:31:16;;;;;;;4.72;2.40;;;36.20;43.10;;;;;;4997552;28;20060;-67
2022/07/19 11:33:43;;;;;;;9.20;2.60;;;36.30;42.50;;;;;;5013595;28;20463;-66
2022/07/19 11:36:09;;;;;;;14.10;3.00;;;36.50;42.00;;;;;;5013794;28;20045;-68
2022/07/19 11:38:38;;;;;;;2.70;2.10;;;36.40;40.90;;;;;;4997036;28;20163;-67
2022/07/19 11:41:18;;;;;;;3.10;2.30;;;36.40;41.10;;;;;;5013959;28;20132;-67
2022/07/19 11:43:51;;;;;;;3.33;1.98;;;36.40;39.60;;;;;;4997268;28;20056;-67
2022/07/19 11:46:17;;;;;;;4.82;2.08;;;36.50;40.30;;;;;;5029881;28;20049;-67
2022/07/19 11:48:43;;;;;;;2.35;2.10;;;36.60;40.80;;;;;;5013792;28;20046;-67
2022/07/19 11:51:11;;;;;;;3.22;1.92;;;36.70;39.90;;;;;;5013384;28;20049;-68
2022/07/19 11:53:39;;;;;;;5.78;2.40;;;36.80;39.10;;;;;;4996919;28;20045;-66
2022/07/19 11:56:15;;;;;;;4.97;2.40;;;36.80;39.90;;;;;;5013781;28;20049;-67
2022/07/19 11:58:41;;;;;;;3.13;1.90;;;36.60;38.90;;;;;;4997167;28;20045;-68
2022/07/19 12:01:07;;;;;;;3.85;1.98;;;36.60;38.50;;;;;;5013389;28;20049;-66
2022/07/19 12:03:33;;;;;;;3.10;2.10;;;36.90;38.50;;;;;;4996898;28;20124;-66
2022/07/19 12:06:04;;;;;;;4.38;2.15;;;37.10;38.80;;;;;;4997574;28;20065;-66
2022/07/19 12:08:42;;;;;;;4.18;1.90;;;37.30;38.00;;;;;;5013660;28;20073;-67
2022/07/19 12:11:17;;;;;;;6.22;1.90;;;37.00;36.60;;;;;;4997016;28;20494;-66
2022/07/19 12:13:44;;;;;;;4.70;2.30;;;37.10;37.30;;;;;;4999875;28;20132;-67
2022/07/19 12:16:12;;;;;;;3.70;1.73;;;37.20;37.50;;;;;;5001037;28;20111;-66
2022/07/19 12:18:56;;;;;;;4.35;1.80;;;37.40;37.10;;;;;;5017249;28;20042;-66
2022/07/19 12:21:22;;;;;;;3.83;1.70;;;37.60;35.00;;;;;;5007488;28;20050;-69
2022/07/19 12:24:12;;;;;;;2.15;1.95;;;37.60;36.30;;;;;;4981266;28;20057;-67
2022/07/19 12:26:40;;;;;;;3.30;1.73;;;37.70;35.80;;;;;;4984361;28;20479;-66
2022/07/19 12:29:21;;;;;;;2.33;1.88;;;37.80;35.80;;;;;;4997740;28;20415;-66
2022/07/19 12:31:48;;;;;;;3.83;2.00;;;37.90;34.60;;;;;;4980969;28;20045;-67
2022/07/19 12:34:15;;;;;;;4.25;2.00;;;38.10;36.20;;;;;;4997535;28;20108;-67
2022/07/19 12:36:41;;;;;;;2.22;1.75;;;38.50;36.10;;;;;;4981154;28;20057;-67
2022/07/19 12:39:22;;;;;;;1.80;1.70;;;38.50;35.60;;;;;;4997290;28;20049;-67
2022/07/19 12:42:05;;;;;;;2.35;1.75;;;38.80;34.50;;;;;;4997140;28;20053;-70
2022/07/19 12:44:32;;;;;;;2.40;1.90;;;39.00;33.70;;;;;;4997392;28;20053;-70
2022/07/19 12:46:58;;;;;;;2.03;1.83;;;39.00;34.70;;;;;;4980911;28;20045;-68